createdAt,value
2023-03-29T00:12:01.729Z,55.99
2023-03-29T00:18:16.304Z,56.57
2023-03-29T00:20:46.313Z,56.64
2023-03-29T00:23:13.800Z,56.73
2023-03-29T00:25:46.477Z,57.34
2023-03-29T00:28:15.122Z,56.97
2023-03-29T00:30:42.252Z,57.38
2023-03-29T00:33:09.525Z,56.92
2023-03-29T00:35:38.314Z,57.57
2023-03-29T00:38:06.910Z,56.82
2023-03-29T00:40:34.612Z,57.03
2023-03-29T00:43:02.475Z,56.58
2023-03-29T00:45:30.634Z,57.16
2023-03-29T00:48:02.561Z,57.10
2023-03-29T00:50:32.498Z,57.41
2023-03-29T00:53:05.016Z,57.00
2023-03-29T00:55:36.907Z,57.14
2023-03-29T00:58:07.927Z,57.63
2023-03-29T01:00:38.760Z,58.36
2023-03-29T01:03:13.613Z,58.07
2023-03-29T01:05:44.631Z,58.11
2023-03-29T01:08:18.025Z,57.93
2023-03-29T01:10:53.401Z,58.68
2023-03-29T01:13:27.362Z,58.41
2023-03-29T01:15:57.220Z,58.48
2023-03-29T01:18:24.454Z,59.08
2023-03-29T01:21:20.802Z,59.44
2023-03-29T01:23:59.270Z,58.83
2023-03-29T01:26:34.207Z,59.25
2023-03-29T01:29:09.100Z,59.08
2023-03-29T01:31:39.339Z,59.59
2023-03-29T01:34:13.016Z,59.51
2023-03-29T01:36:45.096Z,60.60
2023-03-29T01:39:11.959Z,60.59
2023-03-29T01:41:48.266Z,60.16
2023-03-29T01:44:21.310Z,60.10
2023-03-29T01:46:55.702Z,60.30
2023-03-29T01:49:29.030Z,60.40
2023-03-29T01:52:01.305Z,60.52
2023-03-29T01:54:33.978Z,61.17
2023-03-29T01:57:05.714Z,60.28
2023-03-29T01:59:38.826Z,60.24
2023-03-29T02:02:11.482Z,60.15
2023-03-29T02:04:45.975Z,60.00
2023-03-29T02:07:15.456Z,60.00
2023-03-29T02:09:43.860Z,60.16
2023-03-29T02:12:12.765Z,59.95
2023-03-29T02:14:42.742Z,59.86
2023-03-29T02:17:16.640Z,59.43
2023-03-29T02:19:46.111Z,59.37
2023-03-29T02:22:15.437Z,58.99
2023-03-29T02:24:45.221Z,58.57
2023-03-29T02:27:13.050Z,58.62
2023-03-29T02:29:42.520Z,58.82
2023-03-29T02:32:16.253Z,59.31
2023-03-29T02:34:49.674Z,59.24
2023-03-29T02:37:19.151Z,59.52
2023-03-29T02:39:49.357Z,59.53
2023-03-29T02:42:21.194Z,58.84
2023-03-29T02:44:52.123Z,58.73
2023-03-29T02:47:23.304Z,59.56
2023-03-29T02:49:51.198Z,59.30
2023-03-29T02:52:23.924Z,59.30
2023-03-29T02:54:54.549Z,58.54
2023-03-29T02:57:27.186Z,59.03
2023-03-29T02:59:58.850Z,59.04
2023-03-29T03:02:26.517Z,58.61
2023-03-29T03:04:55.468Z,58.36
2023-03-29T03:07:22.703Z,59.07
2023-03-29T03:09:49.460Z,59.29
2023-03-29T03:12:17.247Z,59.24
2023-03-29T03:14:44.763Z,58.75
2023-03-29T03:17:13.213Z,58.79
2023-03-29T03:19:40.195Z,58.99
2023-03-29T03:22:08.052Z,58.91
2023-03-29T03:24:35.446Z,59.44
2023-03-29T03:27:02.453Z,59.57
2023-03-29T03:29:29.830Z,58.85
2023-03-29T03:32:19.030Z,58.87
2023-03-29T03:35:18.106Z,59.11
2023-03-29T03:37:46.066Z,58.99
2023-03-29T03:40:13.830Z,59.77
2023-03-29T03:42:43.438Z,59.51
2023-03-29T03:45:12.889Z,59.24
2023-03-29T03:47:57.960Z,59.82
2023-03-29T03:50:49.938Z,60.48
2023-03-29T03:53:18.303Z,60.28
2023-03-29T03:56:08.948Z,60.37
2023-03-29T03:58:46.341Z,60.06
2023-03-29T04:01:14.166Z,59.68
2023-03-29T04:03:51.562Z,59.49
2023-03-29T04:06:19.366Z,59.89
2023-03-29T04:09:13.102Z,59.89
2023-03-29T04:11:46.700Z,59.52
2023-03-29T04:14:14.359Z,59.00
2023-03-29T04:17:04.573Z,58.64
2023-03-29T04:19:47.876Z,58.98
2023-03-29T04:22:14.763Z,59.51
2023-03-29T04:24:42.449Z,59.54
2023-03-29T04:27:21.684Z,59.51
2023-03-29T04:29:48.896Z,59.02
2023-03-29T04:32:30.260Z,58.96
2023-03-29T04:35:06.319Z,58.81
2023-03-29T04:37:33.622Z,59.39
2023-03-29T04:40:01.774Z,59.39
2023-03-29T04:42:35.585Z,59.49
2023-03-29T04:45:02.613Z,59.34
2023-03-29T04:50:35.117Z,58.69
2023-03-29T04:53:05.042Z,58.88
2023-03-29T04:55:32.273Z,59.20
2023-03-29T04:58:02.933Z,59.80
2023-03-29T05:03:32.505Z,60.00
2023-03-29T05:08:48.399Z,60.81
2023-03-29T05:11:44.858Z,60.82
2023-03-29T05:14:12.726Z,60.67
2023-03-29T05:16:42.782Z,60.81
2023-03-29T05:19:11.272Z,60.68
2023-03-29T05:21:45.088Z,60.83
2023-03-29T05:24:16.638Z,61.14
2023-03-29T05:26:57.192Z,60.91
2023-03-29T05:29:26.817Z,61.56
2023-03-29T05:32:03.528Z,61.23
2023-03-29T05:34:32.237Z,61.35
2023-03-29T05:37:21.437Z,60.97
2023-03-29T05:39:54.315Z,61.47
2023-03-29T05:42:34.722Z,61.44
2023-03-29T05:45:08.711Z,61.53
2023-03-29T05:47:38.971Z,61.78
2023-03-29T05:50:10.019Z,61.69
2023-03-29T05:52:38.833Z,61.46
2023-03-29T05:55:07.931Z,61.27
2023-03-29T05:57:36.904Z,60.51
2023-03-29T06:00:16.853Z,60.84
2023-03-29T06:02:44.573Z,60.75
2023-03-29T06:05:11.954Z,60.58
2023-03-29T06:07:55.875Z,60.15
2023-03-29T06:10:57.193Z,59.90
2023-03-29T06:13:39.201Z,59.83
2023-03-29T06:16:09.359Z,59.68
2023-03-29T06:18:46.055Z,59.75
2023-03-29T06:21:13.885Z,60.17
2023-03-29T06:23:43.004Z,59.77
2023-03-29T06:26:11.269Z,60.55
2023-03-29T06:28:39.098Z,59.72
2023-03-29T06:31:06.749Z,60.21
2023-03-29T06:33:38.885Z,60.21
2023-03-29T06:36:28.948Z,60.05
2023-03-29T06:38:57.154Z,59.81
2023-03-29T06:41:49.136Z,60.10
2023-03-29T06:44:25.684Z,60.37
2023-03-29T06:46:59.898Z,60.92
2023-03-29T06:49:27.513Z,59.98
2023-03-29T06:52:04.986Z,59.24
2023-03-29T06:54:35.988Z,59.32
2023-03-29T06:57:08.143Z,59.55
2023-03-29T06:59:35.742Z,59.67
2023-03-29T07:02:16.867Z,60.21
2023-03-29T07:04:56.213Z,59.37
2023-03-29T07:07:37.382Z,59.99
2023-03-29T07:10:16.659Z,59.92
2023-03-29T07:13:08.769Z,60.21
2023-03-29T07:15:36.374Z,60.55
2023-03-29T07:18:19.973Z,60.65
2023-03-29T07:20:48.547Z,60.53
2023-03-29T07:23:15.481Z,60.83
2023-03-29T07:25:44.967Z,59.87
2023-03-29T07:28:11.866Z,61.17
2023-03-29T07:30:39.218Z,61.00
2023-03-29T07:33:13.523Z,61.21
2023-03-29T07:36:02.288Z,60.83
2023-03-29T07:38:30.232Z,60.56
2023-03-29T07:41:07.583Z,60.81
2023-03-29T07:43:52.005Z,60.77
2023-03-29T07:46:25.306Z,61.01
2023-03-29T07:48:52.699Z,60.39
2023-03-29T07:51:19.975Z,60.21
2023-03-29T07:53:54.660Z,60.77
2023-03-29T07:56:32.738Z,60.28
2023-03-29T07:59:19.935Z,60.45
2023-03-29T08:01:56.797Z,60.09
2023-03-29T08:07:19.422Z,60.18
2023-03-29T08:09:57.938Z,59.96
2023-03-29T08:13:08.421Z,59.91
2023-03-29T08:15:52.107Z,60.19
2023-03-29T08:18:26.597Z,59.83
2023-03-29T08:20:53.420Z,60.14
2023-03-29T08:23:20.414Z,59.65
2023-03-29T08:26:08.721Z,59.46
2023-03-29T08:28:38.585Z,58.76
2023-03-29T08:31:17.069Z,58.28
2023-03-29T08:33:52.538Z,57.11
2023-03-29T08:36:38.257Z,57.48
2023-03-29T08:39:15.832Z,57.65
2023-03-29T08:44:54.125Z,56.94
2023-03-29T08:50:26.454Z,56.86
2023-03-29T08:53:05.318Z,57.07
2023-03-29T08:55:56.827Z,57.29
2023-03-29T09:14:37.755Z,56.08
2023-03-29T12:17:56.286Z,38.55
